sensor_id;sensor_type;location;lat;lon;timestamp;P1;durP1;ratioP1;P2;durP2;ratioP2
39176;SDS011;24904;52.208;21.192;2023-05-07T00:04:24;5.80;;;3.70;;
39176;SDS011;24904;52.208;21.192;2023-05-07T00:09:27;7.50;;;3.10;;
39176;SDS011;24904;52.208;21.192;2023-05-07T00:14:30;6.10;;;3.40;;
39176;SDS011;24904;52.208;21.192;2023-05-07T00:19:33;9.70;;;3.10;;
39176;SDS011;24904;52.208;21.192;2023-05-07T00:24:36;11.70;;;3.30;;
39176;SDS011;24904;52.208;21.192;2023-05-07T00:36:07;4.60;;;3.10;;
39176;SDS011;24904;52.208;21.192;2023-05-07T00:41:10;6.50;;;3.20;;
39176;SDS011;24904;52.208;21.192;2023-05-07T00:46:13;6.60;;;3.90;;
39176;SDS011;24904;52.208;21.192;2023-05-07T00:51:17;6.20;;;3.40;;
39176;SDS011;24904;52.208;21.192;2023-05-07T00:56:21;6.80;;;2.80;;
39176;SDS011;24904;52.208;21.192;2023-05-07T01:01:25;4.20;;;3.10;;
39176;SDS011;24904;52.208;21.192;2023-05-07T01:06:28;4.90;;;3.00;;
39176;SDS011;24904;52.208;21.192;2023-05-07T01:11:33;7.90;;;3.20;;
39176;SDS011;24904;52.208;21.192;2023-05-07T01:16:37;4.80;;;3.10;;
39176;SDS011;24904;52.208;21.192;2023-05-07T01:21:43;6.30;;;3.20;;
39176;SDS011;24904;52.208;21.192;2023-05-07T01:26:49;4.60;;;3.10;;
39176;SDS011;24904;52.208;21.192;2023-05-07T01:31:53;3.80;;;2.80;;
39176;SDS011;24904;52.208;21.192;2023-05-07T01:36:58;9.80;;;3.30;;
39176;SDS011;24904;52.208;21.192;2023-05-07T01:42:02;7.10;;;3.10;;
39176;SDS011;24904;52.208;21.192;2023-05-07T01:47:05;6.40;;;3.20;;
39176;SDS011;24904;52.208;21.192;2023-05-07T01:52:10;6.20;;;2.70;;
39176;SDS011;24904;52.208;21.192;2023-05-07T01:57:14;7.50;;;2.90;;
39176;SDS011;24904;52.208;21.192;2023-05-07T02:02:17;5.30;;;3.00;;
39176;SDS011;24904;52.208;21.192;2023-05-07T02:07:21;4.50;;;2.80;;
39176;SDS011;24904;52.208;21.192;2023-05-07T02:12:24;4.80;;;3.20;;
39176;SDS011;24904;52.208;21.192;2023-05-07T02:17:27;4.80;;;2.80;;
39176;SDS011;24904;52.208;21.192;2023-05-07T02:22:33;5.60;;;2.80;;
39176;SDS011;24904;52.208;21.192;2023-05-07T02:27:36;5.40;;;3.10;;
39176;SDS011;24904;52.208;21.192;2023-05-07T02:32:39;4.40;;;3.10;;
39176;SDS011;24904;52.208;21.192;2023-05-07T02:37:42;4.50;;;2.90;;
39176;SDS011;24904;52.208;21.192;2023-05-07T02:42:45;5.00;;;3.10;;
39176;SDS011;24904;52.208;21.192;2023-05-07T02:47:49;6.30;;;2.90;;
39176;SDS011;24904;52.208;21.192;2023-05-07T02:52:52;4.10;;;2.70;;
39176;SDS011;24904;52.208;21.192;2023-05-07T02:57:55;4.00;;;2.60;;
39176;SDS011;24904;52.208;21.192;2023-05-07T03:02:59;3.60;;;2.50;;
39176;SDS011;24904;52.208;21.192;2023-05-07T03:08:02;4.70;;;2.70;;
39176;SDS011;24904;52.208;21.192;2023-05-07T03:13:06;4.50;;;2.70;;
39176;SDS011;24904;52.208;21.192;2023-05-07T03:18:09;5.30;;;2.40;;
39176;SDS011;24904;52.208;21.192;2023-05-07T03:23:13;6.50;;;2.50;;
39176;SDS011;24904;52.208;21.192;2023-05-07T03:28:16;3.90;;;2.70;;
39176;SDS011;24904;52.208;21.192;2023-05-07T03:33:25;4.10;;;2.30;;
39176;SDS011;24904;52.208;21.192;2023-05-07T03:38:29;5.90;;;2.60;;
39176;SDS011;24904;52.208;21.192;2023-05-07T03:43:32;4.20;;;2.40;;
39176;SDS011;24904;52.208;21.192;2023-05-07T03:48:40;5.10;;;2.90;;
39176;SDS011;24904;52.208;21.192;2023-05-07T03:53:44;4.40;;;2.40;;
39176;SDS011;24904;52.208;21.192;2023-05-07T03:58:47;4.90;;;2.50;;
39176;SDS011;24904;52.208;21.192;2023-05-07T04:03:51;3.90;;;2.40;;
39176;SDS011;24904;52.208;21.192;2023-05-07T04:08:54;3.80;;;2.70;;
39176;SDS011;24904;52.208;21.192;2023-05-07T04:13:58;4.30;;;2.50;;
39176;SDS011;24904;52.208;21.192;2023-05-07T04:19:01;4.00;;;2.60;;
39176;SDS011;24904;52.208;21.192;2023-05-07T04:24:05;4.30;;;2.50;;
39176;SDS011;24904;52.208;21.192;2023-05-07T04:29:09;4.20;;;2.50;;
39176;SDS011;24904;52.208;21.192;2023-05-07T04:34:13;4.60;;;2.60;;
39176;SDS011;24904;52.208;21.192;2023-05-07T04:39:16;6.10;;;2.60;;
39176;SDS011;24904;52.208;21.192;2023-05-07T04:44:20;3.40;;;2.40;;
39176;SDS011;24904;52.208;21.192;2023-05-07T04:49:24;4.60;;;2.50;;
39176;SDS011;24904;52.208;21.192;2023-05-07T04:54:27;4.00;;;2.60;;
39176;SDS011;24904;52.208;21.192;2023-05-07T04:59:31;7.90;;;2.60;;
39176;SDS011;24904;52.208;21.192;2023-05-07T05:04:35;3.50;;;2.50;;
39176;SDS011;24904;52.208;21.192;2023-05-07T05:09:39;3.80;;;2.40;;
39176;SDS011;24904;52.208;21.192;2023-05-07T05:14:43;5.40;;;2.30;;
39176;SDS011;24904;52.208;21.192;2023-05-07T05:19:47;4.20;;;2.80;;
39176;SDS011;24904;52.208;21.192;2023-05-07T05:24:50;3.80;;;2.20;;
39176;SDS011;24904;52.208;21.192;2023-05-07T05:29:54;4.90;;;2.00;;
39176;SDS011;24904;52.208;21.192;2023-05-07T05:34:57;4.00;;;2.30;;
39176;SDS011;24904;52.208;21.192;2023-05-07T05:40:01;3.70;;;2.20;;
39176;SDS011;24904;52.208;21.192;2023-05-07T05:45:07;4.20;;;2.30;;
39176;SDS011;24904;52.208;21.192;2023-05-07T05:50:11;4.90;;;1.90;;
39176;SDS011;24904;52.208;21.192;2023-05-07T05:55:15;5.20;;;2.30;;
39176;SDS011;24904;52.208;21.192;2023-05-07T06:00:18;3.40;;;2.20;;
39176;SDS011;24904;52.208;21.192;2023-05-07T06:05:30;2.60;;;1.90;;
39176;SDS011;24904;52.208;21.192;2023-05-07T06:10:33;5.40;;;2.20;;
39176;SDS011;24904;52.208;21.192;2023-05-07T06:15:39;3.10;;;1.80;;
39176;SDS011;24904;52.208;21.192;2023-05-07T06:20:44;2.60;;;1.80;;
39176;SDS011;24904;52.208;21.192;2023-05-07T06:25:53;5.40;;;2.20;;
39176;SDS011;24904;52.208;21.192;2023-05-07T06:31:11;3.40;;;2.00;;
39176;SDS011;24904;52.208;21.192;2023-05-07T06:36:15;4.70;;;2.50;;
39176;SDS011;24904;52.208;21.192;2023-05-07T06:41:19;2.70;;;1.80;;
39176;SDS011;24904;52.208;21.192;2023-05-07T06:46:22;2.70;;;1.90;;
39176;SDS011;24904;52.208;21.192;2023-05-07T06:51:25;3.80;;;1.80;;
39176;SDS011;24904;52.208;21.192;2023-05-07T06:56:30;2.80;;;1.90;;
39176;SDS011;24904;52.208;21.192;2023-05-07T07:01:33;7.00;;;2.10;;
39176;SDS011;24904;52.208;21.192;2023-05-07T07:06:37;3.60;;;2.10;;
39176;SDS011;24904;52.208;21.192;2023-05-07T07:11:43;5.60;;;2.00;;
39176;SDS011;24904;52.208;21.192;2023-05-07T07:16:46;5.30;;;2.30;;
39176;SDS011;24904;52.208;21.192;2023-05-07T07:21:50;4.30;;;2.20;;
39176;SDS011;24904;52.208;21.192;2023-05-07T07:26:54;5.60;;;2.00;;
39176;SDS011;24904;52.208;21.192;2023-05-07T07:31:57;4.90;;;2.20;;
39176;SDS011;24904;52.208;21.192;2023-05-07T07:37:01;4.60;;;2.40;;
39176;SDS011;24904;52.208;21.192;2023-05-07T07:42:06;3.40;;;2.20;;
39176;SDS011;24904;52.208;21.192;2023-05-07T07:47:10;4.40;;;2.50;;
39176;SDS011;24904;52.208;21.192;2023-05-07T07:52:13;4.20;;;2.60;;
39176;SDS011;24904;52.208;21.192;2023-05-07T07:57:17;4.30;;;2.30;;
39176;SDS011;24904;52.208;21.192;2023-05-07T08:02:21;4.60;;;2.20;;
39176;SDS011;24904;52.208;21.192;2023-05-07T08:07:24;3.00;;;1.90;;
39176;SDS011;24904;52.208;21.192;2023-05-07T08:12:28;4.90;;;2.80;;
39176;SDS011;24904;52.208;21.192;2023-05-07T08:17:31;3.70;;;2.30;;
39176;SDS011;24904;52.208;21.192;2023-05-07T08:22:34;4.40;;;2.20;;
39176;SDS011;24904;52.208;21.192;2023-05-07T08:27:38;4.50;;;1.80;;
39176;SDS011;24904;52.208;21.192;2023-05-07T08:32:41;3.10;;;2.00;;
39176;SDS011;24904;52.208;21.192;2023-05-07T08:37:44;3.80;;;1.90;;
39176;SDS011;24904;52.208;21.192;2023-05-07T08:42:48;6.20;;;2.10;;
39176;SDS011;24904;52.208;21.192;2023-05-07T08:47:54;4.80;;;1.90;;
39176;SDS011;24904;52.208;21.192;2023-05-07T08:53:04;3.10;;;1.90;;
39176;SDS011;24904;52.208;21.192;2023-05-07T08:58:07;3.50;;;2.00;;
39176;SDS011;24904;52.208;21.192;2023-05-07T09:03:12;5.50;;;2.00;;
39176;SDS011;24904;52.208;21.192;2023-05-07T09:08:17;5.50;;;1.70;;
39176;SDS011;24904;52.208;21.192;2023-05-07T09:13:26;3.50;;;1.90;;
39176;SDS011;24904;52.208;21.192;2023-05-07T09:18:30;4.20;;;2.00;;
39176;SDS011;24904;52.208;21.192;2023-05-07T09:23:33;4.20;;;1.80;;
39176;SDS011;24904;52.208;21.192;2023-05-07T09:28:38;3.50;;;2.40;;
39176;SDS011;24904;52.208;21.192;2023-05-07T09:33:43;3.40;;;1.90;;
39176;SDS011;24904;52.208;21.192;2023-05-07T09:38:47;3.30;;;1.90;;
39176;SDS011;24904;52.208;21.192;2023-05-07T09:43:53;6.50;;;3.40;;
39176;SDS011;24904;52.208;21.192;2023-05-07T09:48:59;6.20;;;1.90;;
39176;SDS011;24904;52.208;21.192;2023-05-07T09:54:05;4.30;;;1.70;;
39176;SDS011;24904;52.208;21.192;2023-05-07T09:59:11;7.40;;;1.70;;
39176;SDS011;24904;52.208;21.192;2023-05-07T10:04:17;3.30;;;2.10;;
39176;SDS011;24904;52.208;21.192;2023-05-07T10:09:21;3.00;;;1.70;;
39176;SDS011;24904;52.208;21.192;2023-05-07T10:14:27;3.00;;;2.00;;
39176;SDS011;24904;52.208;21.192;2023-05-07T10:19:31;3.80;;;2.20;;
39176;SDS011;24904;52.208;21.192;2023-05-07T10:24:36;4.20;;;1.80;;
39176;SDS011;24904;52.208;21.192;2023-05-07T10:29:48;3.20;;;2.00;;
39176;SDS011;24904;52.208;21.192;2023-05-07T10:35:02;3.90;;;1.90;;
39176;SDS011;24904;52.208;21.192;2023-05-07T10:40:10;5.20;;;2.90;;
39176;SDS011;24904;52.208;21.192;2023-05-07T10:45:15;3.50;;;2.00;;
39176;SDS011;24904;52.208;21.192;2023-05-07T10:50:21;3.00;;;1.80;;
39176;SDS011;24904;52.208;21.192;2023-05-07T11:01:50;7.30;;;2.10;;
39176;SDS011;24904;52.208;21.192;2023-05-07T11:12:51;4.10;;;2.00;;
39176;SDS011;24904;52.208;21.192;2023-05-07T11:17:59;3.20;;;1.70;;
39176;SDS011;24904;52.208;21.192;2023-05-07T11:23:08;3.80;;;2.10;;
39176;SDS011;24904;52.208;21.192;2023-05-07T11:28:39;4.40;;;1.90;;
39176;SDS011;24904;52.208;21.192;2023-05-07T11:33:45;3.50;;;1.70;;
39176;SDS011;24904;52.208;21.192;2023-05-07T11:38:49;4.80;;;1.90;;
39176;SDS011;24904;52.208;21.192;2023-05-07T11:43:59;3.20;;;1.50;;
39176;SDS011;24904;52.208;21.192;2023-05-07T11:49:02;2.40;;;1.50;;
39176;SDS011;24904;52.208;21.192;2023-05-07T11:54:05;2.00;;;1.40;;
39176;SDS011;24904;52.208;21.192;2023-05-07T11:59:09;5.20;;;1.60;;
39176;SDS011;24904;52.208;21.192;2023-05-07T12:04:12;2.90;;;1.60;;
39176;SDS011;24904;52.208;21.192;2023-05-07T12:09:16;5.00;;;1.70;;
39176;SDS011;24904;52.208;21.192;2023-05-07T12:14:19;3.00;;;1.70;;
39176;SDS011;24904;52.208;21.192;2023-05-07T12:19:22;2.30;;;1.50;;
39176;SDS011;24904;52.208;21.192;2023-05-07T12:24:25;3.70;;;1.40;;
39176;SDS011;24904;52.208;21.192;2023-05-07T12:29:28;4.40;;;1.80;;
39176;SDS011;24904;52.208;21.192;2023-05-07T12:34:31;2.00;;;1.40;;
39176;SDS011;24904;52.208;21.192;2023-05-07T12:39:34;3.20;;;1.30;;
39176;SDS011;24904;52.208;21.192;2023-05-07T12:44:38;4.20;;;1.60;;
39176;SDS011;24904;52.208;21.192;2023-05-07T12:49:41;5.50;;;1.80;;
39176;SDS011;24904;52.208;21.192;2023-05-07T12:54:46;3.10;;;2.20;;
39176;SDS011;24904;52.208;21.192;2023-05-07T12:59:50;4.10;;;1.40;;
39176;SDS011;24904;52.208;21.192;2023-05-07T13:04:59;3.80;;;1.30;;
39176;SDS011;24904;52.208;21.192;2023-05-07T13:10:02;2.20;;;1.20;;
39176;SDS011;24904;52.208;21.192;2023-05-07T13:15:07;2.80;;;1.50;;
39176;SDS011;24904;52.208;21.192;2023-05-07T13:20:11;2.20;;;1.40;;
39176;SDS011;24904;52.208;21.192;2023-05-07T13:25:14;1.40;;;1.10;;
39176;SDS011;24904;52.208;21.192;2023-05-07T13:30:18;2.30;;;1.20;;
39176;SDS011;24904;52.208;21.192;2023-05-07T13:35:21;2.60;;;1.60;;
39176;SDS011;24904;52.208;21.192;2023-05-07T13:40:24;3.50;;;1.50;;
39176;SDS011;24904;52.208;21.192;2023-05-07T13:45:27;2.70;;;1.60;;
39176;SDS011;24904;52.208;21.192;2023-05-07T13:50:31;2.90;;;1.60;;
39176;SDS011;24904;52.208;21.192;2023-05-07T13:55:34;8.90;;;2.70;;
39176;SDS011;24904;52.208;21.192;2023-05-07T14:00:37;3.60;;;1.80;;
39176;SDS011;24904;52.208;21.192;2023-05-07T14:05:40;3.10;;;1.90;;
39176;SDS011;24904;52.208;21.192;2023-05-07T14:10:43;3.50;;;1.40;;
39176;SDS011;24904;52.208;21.192;2023-05-07T14:15:47;2.50;;;1.40;;
39176;SDS011;24904;52.208;21.192;2023-05-07T14:20:50;2.90;;;1.40;;
39176;SDS011;24904;52.208;21.192;2023-05-07T14:25:53;3.80;;;2.10;;
39176;SDS011;24904;52.208;21.192;2023-05-07T14:30:58;2.30;;;1.50;;
39176;SDS011;24904;52.208;21.192;2023-05-07T14:36:01;12.40;;;1.70;;
39176;SDS011;24904;52.208;21.192;2023-05-07T14:41:04;2.50;;;1.40;;
39176;SDS011;24904;52.208;21.192;2023-05-07T14:46:07;5.60;;;1.40;;
39176;SDS011;24904;52.208;21.192;2023-05-07T14:51:10;2.00;;;1.40;;
39176;SDS011;24904;52.208;21.192;2023-05-07T14:56:14;2.50;;;1.50;;
39176;SDS011;24904;52.208;21.192;2023-05-07T15:01:17;13.50;;;2.50;;
39176;SDS011;24904;52.208;21.192;2023-05-07T15:06:21;2.70;;;1.70;;
39176;SDS011;24904;52.208;21.192;2023-05-07T15:11:25;3.40;;;1.40;;
39176;SDS011;24904;52.208;21.192;2023-05-07T15:16:28;4.80;;;1.60;;
39176;SDS011;24904;52.208;21.192;2023-05-07T15:21:31;4.40;;;1.60;;
39176;SDS011;24904;52.208;21.192;2023-05-07T15:26:35;9.70;;;1.60;;
39176;SDS011;24904;52.208;21.192;2023-05-07T15:31:38;6.60;;;2.20;;
39176;SDS011;24904;52.208;21.192;2023-05-07T15:36:41;4.60;;;1.90;;
39176;SDS011;24904;52.208;21.192;2023-05-07T15:41:44;3.40;;;1.50;;
39176;SDS011;24904;52.208;21.192;2023-05-07T15:46:47;3.50;;;1.60;;
39176;SDS011;24904;52.208;21.192;2023-05-07T15:51:50;4.50;;;1.60;;
39176;SDS011;24904;52.208;21.192;2023-05-07T15:56:55;3.10;;;1.70;;
39176;SDS011;24904;52.208;21.192;2023-05-07T16:01:58;2.40;;;1.60;;
39176;SDS011;24904;52.208;21.192;2023-05-07T16:07:01;7.00;;;1.90;;
39176;SDS011;24904;52.208;21.192;2023-05-07T16:12:05;3.30;;;1.70;;
39176;SDS011;24904;52.208;21.192;2023-05-07T16:17:08;7.70;;;1.70;;
39176;SDS011;24904;52.208;21.192;2023-05-07T16:22:11;2.70;;;1.60;;
39176;SDS011;24904;52.208;21.192;2023-05-07T16:27:14;3.40;;;2.00;;
39176;SDS011;24904;52.208;21.192;2023-05-07T16:32:17;4.50;;;1.80;;
39176;SDS011;24904;52.208;21.192;2023-05-07T16:37:20;2.70;;;1.90;;
39176;SDS011;24904;52.208;21.192;2023-05-07T16:42:23;5.50;;;2.20;;
39176;SDS011;24904;52.208;21.192;2023-05-07T16:47:26;3.60;;;2.00;;
39176;SDS011;24904;52.208;21.192;2023-05-07T16:52:29;4.10;;;1.90;;
39176;SDS011;24904;52.208;21.192;2023-05-07T16:57:33;5.00;;;3.60;;
39176;SDS011;24904;52.208;21.192;2023-05-07T17:02:36;3.80;;;2.00;;
39176;SDS011;24904;52.208;21.192;2023-05-07T17:07:39;5.50;;;1.80;;
39176;SDS011;24904;52.208;21.192;2023-05-07T17:12:42;4.40;;;2.10;;
39176;SDS011;24904;52.208;21.192;2023-05-07T17:17:45;4.50;;;2.10;;
39176;SDS011;24904;52.208;21.192;2023-05-07T17:22:48;2.80;;;1.90;;
39176;SDS011;24904;52.208;21.192;2023-05-07T17:27:51;3.40;;;2.30;;
39176;SDS011;24904;52.208;21.192;2023-05-07T17:32:54;5.20;;;1.80;;
39176;SDS011;24904;52.208;21.192;2023-05-07T17:37:57;4.00;;;2.00;;
39176;SDS011;24904;52.208;21.192;2023-05-07T17:43:03;5.60;;;1.90;;
39176;SDS011;24904;52.208;21.192;2023-05-07T17:48:06;4.00;;;2.10;;
39176;SDS011;24904;52.208;21.192;2023-05-07T17:53:09;5.10;;;2.50;;
39176;SDS011;24904;52.208;21.192;2023-05-07T17:58:13;5.60;;;2.50;;
39176;SDS011;24904;52.208;21.192;2023-05-07T18:03:16;4.80;;;2.80;;
39176;SDS011;24904;52.208;21.192;2023-05-07T18:08:19;5.80;;;2.80;;
39176;SDS011;24904;52.208;21.192;2023-05-07T18:13:22;5.70;;;2.60;;
39176;SDS011;24904;52.208;21.192;2023-05-07T18:18:25;5.40;;;2.60;;
39176;SDS011;24904;52.208;21.192;2023-05-07T18:23:30;6.30;;;3.00;;
39176;SDS011;24904;52.208;21.192;2023-05-07T18:28:35;4.40;;;2.20;;
39176;SDS011;24904;52.208;21.192;2023-05-07T18:33:38;12.10;;;2.80;;
39176;SDS011;24904;52.208;21.192;2023-05-07T18:38:41;7.00;;;2.50;;
39176;SDS011;24904;52.208;21.192;2023-05-07T18:43:44;5.70;;;2.70;;
39176;SDS011;24904;52.208;21.192;2023-05-07T18:48:48;9.50;;;2.90;;
39176;SDS011;24904;52.208;21.192;2023-05-07T18:53:51;7.90;;;3.40;;
39176;SDS011;24904;52.208;21.192;2023-05-07T18:58:54;9.80;;;4.90;;
39176;SDS011;24904;52.208;21.192;2023-05-07T19:03:57;8.20;;;3.20;;
39176;SDS011;24904;52.208;21.192;2023-05-07T19:09:00;7.30;;;3.60;;
39176;SDS011;24904;52.208;21.192;2023-05-07T19:14:05;5.90;;;3.40;;
39176;SDS011;24904;52.208;21.192;2023-05-07T19:19:08;6.60;;;4.10;;
39176;SDS011;24904;52.208;21.192;2023-05-07T19:24:11;10.30;;;6.20;;
39176;SDS011;24904;52.208;21.192;2023-05-07T19:29:14;9.90;;;5.70;;
39176;SDS011;24904;52.208;21.192;2023-05-07T19:34:17;15.80;;;7.50;;
39176;SDS011;24904;52.208;21.192;2023-05-07T19:39:20;12.60;;;6.50;;
39176;SDS011;24904;52.208;21.192;2023-05-07T19:44:23;7.20;;;4.60;;
39176;SDS011;24904;52.208;21.192;2023-05-07T19:49:26;12.30;;;5.60;;
39176;SDS011;24904;52.208;21.192;2023-05-07T19:54:29;7.70;;;5.10;;
39176;SDS011;24904;52.208;21.192;2023-05-07T19:59:32;9.00;;;5.30;;
39176;SDS011;24904;52.208;21.192;2023-05-07T20:04:35;7.60;;;5.60;;
39176;SDS011;24904;52.208;21.192;2023-05-07T20:09:38;8.60;;;5.30;;
39176;SDS011;24904;52.208;21.192;2023-05-07T20:14:41;11.70;;;5.90;;
39176;SDS011;24904;52.208;21.192;2023-05-07T20:19:44;7.80;;;5.70;;
39176;SDS011;24904;52.208;21.192;2023-05-07T20:24:48;8.30;;;6.10;;
39176;SDS011;24904;52.208;21.192;2023-05-07T20:29:51;9.60;;;5.90;;
39176;SDS011;24904;52.208;21.192;2023-05-07T20:34:54;10.40;;;6.30;;
39176;SDS011;24904;52.208;21.192;2023-05-07T20:39:57;8.10;;;6.60;;
39176;SDS011;24904;52.208;21.192;2023-05-07T20:45:00;9.30;;;5.80;;
39176;SDS011;24904;52.208;21.192;2023-05-07T20:50:04;12.80;;;6.60;;
39176;SDS011;24904;52.208;21.192;2023-05-07T20:55:08;12.60;;;6.90;;
39176;SDS011;24904;52.208;21.192;2023-05-07T21:00:11;17.80;;;8.10;;
39176;SDS011;24904;52.208;21.192;2023-05-07T21:05:17;14.60;;;7.30;;
39176;SDS011;24904;52.208;21.192;2023-05-07T21:10:20;11.60;;;7.90;;
39176;SDS011;24904;52.208;21.192;2023-05-07T21:15:24;13.70;;;7.70;;
39176;SDS011;24904;52.208;21.192;2023-05-07T21:20:27;13.40;;;8.80;;
39176;SDS011;24904;52.208;21.192;2023-05-07T21:25:31;12.90;;;7.90;;
39176;SDS011;24904;52.208;21.192;2023-05-07T21:30:34;11.70;;;7.60;;
39176;SDS011;24904;52.208;21.192;2023-05-07T21:35:37;12.40;;;6.10;;
39176;SDS011;24904;52.208;21.192;2023-05-07T21:40:40;12.20;;;6.30;;
39176;SDS011;24904;52.208;21.192;2023-05-07T21:45:43;10.40;;;6.00;;
39176;SDS011;24904;52.208;21.192;2023-05-07T21:50:46;8.80;;;5.90;;
39176;SDS011;24904;52.208;21.192;2023-05-07T21:55:49;13.00;;;7.20;;
39176;SDS011;24904;52.208;21.192;2023-05-07T22:00:53;10.20;;;6.80;;
39176;SDS011;24904;52.208;21.192;2023-05-07T22:05:57;11.50;;;7.30;;
39176;SDS011;24904;52.208;21.192;2023-05-07T22:11:00;15.50;;;7.50;;
39176;SDS011;24904;52.208;21.192;2023-05-07T22:16:04;10.60;;;6.90;;
39176;SDS011;24904;52.208;21.192;2023-05-07T22:21:07;12.10;;;7.40;;
39176;SDS011;24904;52.208;21.192;2023-05-07T22:26:11;10.90;;;6.60;;
39176;SDS011;24904;52.208;21.192;2023-05-07T22:31:14;9.80;;;6.70;;
39176;SDS011;24904;52.208;21.192;2023-05-07T22:36:17;10.10;;;6.40;;
39176;SDS011;24904;52.208;21.192;2023-05-07T22:41:20;11.80;;;6.40;;
39176;SDS011;24904;52.208;21.192;2023-05-07T22:46:24;9.20;;;5.60;;
39176;SDS011;24904;52.208;21.192;2023-05-07T22:51:27;11.10;;;6.00;;
39176;SDS011;24904;52.208;21.192;2023-05-07T22:56:30;11.20;;;6.50;;
39176;SDS011;24904;52.208;21.192;2023-05-07T23:01:34;12.50;;;5.70;;
39176;SDS011;24904;52.208;21.192;2023-05-07T23:06:37;9.00;;;5.10;;
39176;SDS011;24904;52.208;21.192;2023-05-07T23:11:41;8.30;;;5.40;;
39176;SDS011;24904;52.208;21.192;2023-05-07T23:16:44;8.60;;;4.70;;
39176;SDS011;24904;52.208;21.192;2023-05-07T23:21:47;10.00;;;5.00;;
39176;SDS011;24904;52.208;21.192;2023-05-07T23:26:50;12.10;;;4.60;;
39176;SDS011;24904;52.208;21.192;2023-05-07T23:31:53;11.10;;;4.80;;
39176;SDS011;24904;52.208;21.192;2023-05-07T23:36:56;10.00;;;5.30;;
39176;SDS011;24904;52.208;21.192;2023-05-07T23:41:59;11.00;;;6.40;;
39176;SDS011;24904;52.208;21.192;2023-05-07T23:47:03;11.10;;;5.70;;
39176;SDS011;24904;52.208;21.192;2023-05-07T23:52:06;10.00;;;5.00;;
39176;SDS011;24904;52.208;21.192;2023-05-07T23:57:09;9.90;;;6.00;;
